Time,TemperatureF,DewpointF,PressureIn,WindDirection,WindDirectionDegrees,WindSpeedMPH,WindSpeedGustMPH,Humidity,HourlyPrecipIn,Conditions,Clouds,dailyrainin,SoftwareType,DateUTC
2013-05-31 00:03:00,64.2,59.9,29.50,NE,56,0.0,2.0,86,0.00,,,0.11,VWS V14.01,2013-05-31 05:03:00,
2013-05-31 00:08:00,64.2,59.9,29.50,SE,134,0.0,3.0,86,0.00,,,0.00,VWS V14.01,2013-05-31 05:08:00,
2013-05-31 00:13:00,64.2,59.9,29.50,ESE,116,0.0,3.0,86,0.00,,,0.00,VWS V14.01,2013-05-31 05:13:00,
2013-05-31 00:18:00,64.1,59.8,29.50,East,100,2.0,5.0,86,0.00,,,0.00,VWS V14.01,2013-05-31 05:18:00,
2013-05-31 00:23:00,64.1,59.8,29.50,ENE,67,1.0,6.0,86,0.00,,,0.00,VWS V14.01,2013-05-31 05:23:00,
2013-05-31 00:28:00,64.1,59.8,29.50,ESE,120,0.0,6.0,86,0.00,,,0.00,VWS V14.01,2013-05-31 05:28:00,
2013-05-31 00:33:00,64.2,59.9,29.50,SW,220,0.0,1.0,86,0.00,,,0.00,VWS V14.01,2013-05-31 05:33:00,
2013-05-31 00:38:00,64.3,60.0,29.50,WSW,239,0.0,3.0,86,0.00,,,0.00,VWS V14.01,2013-05-31 05:38:00,
2013-05-31 00:43:00,64.4,60.1,29.50,ESE,118,0.0,3.0,86,0.00,,,0.00,VWS V14.01,2013-05-31 05:43:00,
2013-05-31 00:48:00,64.4,60.1,29.50,NE,43,1.0,3.0,86,0.00,,,0.00,VWS V14.01,2013-05-31 05:48:00,
2013-05-31 00:53:00,64.5,60.2,29.50,NW,321,0.0,3.0,86,0.00,,,0.00,VWS V14.01,2013-05-31 05:53:00,
2013-05-31 00:58:00,64.6,60.3,29.50,NNE,14,0.0,3.0,86,0.00,,,0.00,VWS V14.01,2013-05-31 05:58:00,
2013-05-31 01:03:00,64.6,60.3,29.49,NW,311,0.0,2.0,86,0.00,,,0.00,VWS V14.01,2013-05-31 06:03:00,
2013-05-31 01:09:00,64.6,60.3,29.49,ESE,110,3.0,5.0,86,0.00,,,0.00,VWS V14.01,2013-05-31 06:09:00,
2013-05-31 01:14:00,64.4,60.1,29.49,East,89,0.0,5.0,86,0.00,,,0.00,VWS V14.01,2013-05-31 06:14:00,
2013-05-31 01:19:00,64.3,60.0,29.49,ESE,116,1.0,6.0,86,0.00,,,0.00,VWS V14.01,2013-05-31 06:19:00,
2013-05-31 01:24:00,64.2,59.9,29.49,ENE,59,0.0,6.0,86,0.00,,,0.00,VWS V14.01,2013-05-31 06:24:00,
2013-05-31 01:29:00,64.2,59.9,29.49,ESE,123,0.0,6.0,86,0.00,,,0.00,VWS V14.01,2013-05-31 06:29:00,
2013-05-31 01:34:00,64.1,59.8,29.49,SE,145,1.0,3.0,86,0.00,,,0.00,VWS V14.01,2013-05-31 06:34:00,
2013-05-31 01:39:00,64.3,60.0,29.50,East,86,2.0,5.0,86,0.00,,,0.00,VWS V14.01,2013-05-31 06:39:00,
2013-05-31 01:44:00,64.3,60.0,29.50,WNW,302,1.0,5.0,86,0.00,,,0.00,VWS V14.01,2013-05-31 06:44:00,
2013-05-31 01:49:00,64.3,60.0,29.49,SE,131,1.0,7.0,86,0.00,,,0.00,VWS V14.01,2013-05-31 06:49:00,
2013-05-31 01:54:00,64.3,60.0,29.49,ESE,110,1.0,7.0,86,0.00,,,0.00,VWS V14.01,2013-05-31 06:54:00,
2013-05-31 01:59:00,64.1,59.8,29.49,WSW,251,0.0,7.0,86,0.00,,,0.00,VWS V14.01,2013-05-31 06:59:00,
2013-05-31 02:05:00,64.0,59.7,29.48,West,261,1.0,7.0,86,0.00,,,0.00,VWS V14.01,2013-05-31 07:05:00,
2013-05-31 02:10:00,63.9,59.6,29.48,West,274,0.0,7.0,86,0.00,,,0.00,VWS V14.01,2013-05-31 07:10:00,
2013-05-31 02:15:00,63.7,59.4,29.48,ESE,110,1.0,7.0,86,0.00,,,0.00,VWS V14.01,2013-05-31 07:15:00,
2013-05-31 02:20:00,63.6,59.3,29.47,South,187,0.0,7.0,86,0.00,,,0.00,VWS V14.01,2013-05-31 07:20:00,
2013-05-31 02:25:00,63.5,59.2,29.47,ESE,109,0.0,7.0,86,0.01,,,0.01,VWS V14.01,2013-05-31 07:25:00,
2013-05-31 02:30:00,63.5,59.2,29.47,ESE,116,1.0,7.0,86,0.01,,,0.01,VWS V14.01,2013-05-31 07:30:00,
2013-05-31 02:35:00,63.4,59.2,29.47,ENE,73,0.0,1.0,86,0.01,,,0.01,VWS V14.01,2013-05-31 07:35:00,
2013-05-31 02:40:00,63.2,59.0,29.47,ESE,123,0.0,4.0,86,0.01,,,0.01,VWS V14.01,2013-05-31 07:40:00,
2013-05-31 02:45:00,63.1,58.8,29.47,SSE,168,0.0,4.0,86,0.01,,,0.01,VWS V14.01,2013-05-31 07:45:00,
2013-05-31 02:50:00,62.9,58.7,29.48,SE,130,0.0,4.0,86,0.01,,,0.01,VWS V14.01,2013-05-31 07:50:00,
2013-05-31 02:55:00,62.7,58.5,29.48,ESE,121,0.0,4.0,86,0.01,,,0.01,VWS V14.01,2013-05-31 07:55:00,
2013-05-31 03:00:00,62.6,58.4,29.48,SSE,168,0.0,4.0,86,0.01,,,0.01,VWS V14.01,2013-05-31 08:00:00,
2013-05-31 03:06:00,62.6,58.4,29.48,NNE,26,0.0,2.0,86,0.01,,,0.01,VWS V14.01,2013-05-31 08:06:00,
2013-05-31 03:11:00,62.6,58.4,29.48,East,90,0.0,2.0,86,0.01,,,0.01,VWS V14.01,2013-05-31 08:11:00,
2013-05-31 03:16:00,62.6,58.4,29.48,ESE,108,0.0,2.0,86,0.01,,,0.01,VWS V14.01,2013-05-31 08:16:00,
2013-05-31 03:21:00,62.6,58.4,29.48,SE,137,0.0,2.0,86,0.01,,,0.01,VWS V14.01,2013-05-31 08:21:00,
2013-05-31 03:26:00,62.5,58.3,29.48,SSE,164,0.0,2.0,86,0.01,,,0.01,VWS V14.01,2013-05-31 08:26:00,
2013-05-31 03:31:00,62.4,58.2,29.48,NW,314,1.0,2.0,86,0.01,,,0.01,VWS V14.01,2013-05-31 08:31:00,
2013-05-31 03:36:00,62.3,58.1,29.48,ESE,118,1.0,2.0,86,0.00,,,0.01,VWS V14.01,2013-05-31 08:36:00,
2013-05-31 03:41:00,62.3,58.1,29.48,SSE,154,0.0,3.0,86,0.00,,,0.01,VWS V14.01,2013-05-31 08:41:00,
2013-05-31 03:46:00,62.3,58.1,29.48,West,277,1.0,3.0,86,0.00,,,0.01,VWS V14.01,2013-05-31 08:46:00,
2013-05-31 03:51:00,62.3,58.1,29.48,ESE,116,0.0,3.0,86,0.00,,,0.01,VWS V14.01,2013-05-31 08:51:00,
2013-05-31 03:56:00,62.3,58.1,29.48,East,89,0.0,3.0,86,0.00,,,0.01,VWS V14.01,2013-05-31 08:56:00,
2013-05-31 04:02:00,62.3,58.1,29.48,North,359,0.0,3.0,86,0.00,,,0.01,VWS V14.01,2013-05-31 09:02:00,
2013-05-31 04:07:00,62.3,58.1,29.47,ESE,103,1.0,3.0,86,0.00,,,0.01,VWS V14.01,2013-05-31 09:07:00,
2013-05-31 04:12:00,62.2,58.0,29.48,ESE,122,0.0,3.0,86,0.00,,,0.01,VWS V14.01,2013-05-31 09:12:00,
2013-05-31 04:17:00,62.2,58.0,29.48,ESE,122,0.0,3.0,86,0.00,,,0.01,VWS V14.01,2013-05-31 09:17:00,
2013-05-31 04:22:00,62.2,58.0,29.49,SSW,193,0.0,3.0,86,0.00,,,0.01,VWS V14.01,2013-05-31 09:22:00,
2013-05-31 04:27:00,62.1,57.9,29.49,ESE,112,2.0,3.0,86,0.00,,,0.01,VWS V14.01,2013-05-31 09:27:00,
2013-05-31 04:32:00,62.1,57.9,29.49,ESE,119,0.0,3.0,86,0.00,,,0.01,VWS V14.01,2013-05-31 09:32:00,
2013-05-31 04:37:00,62.1,57.9,29.49,North,354,0.0,0.0,86,0.00,,,0.01,VWS V14.01,2013-05-31 09:37:00,
2013-05-31 04:42:00,62.1,57.9,29.49,SSE,156,0.0,1.0,86,0.00,,,0.01,VWS V14.01,2013-05-31 09:42:00,
2013-05-31 04:47:00,62.0,57.8,29.49,SSE,149,1.0,2.0,86,0.00,,,0.01,VWS V14.01,2013-05-31 09:47:00,
2013-05-31 04:52:00,62.0,57.8,29.49,ESE,113,0.0,3.0,86,0.00,,,0.01,VWS V14.01,2013-05-31 09:52:00,
2013-05-31 04:57:00,62.1,57.9,29.49,SSE,157,0.0,3.0,86,0.00,,,0.01,VWS V14.01,2013-05-31 09:57:00,
2013-05-31 05:03:00,62.1,57.9,29.49,SW,219,0.0,3.0,86,0.00,,,0.01,VWS V14.01,2013-05-31 10:03:00,
2013-05-31 05:08:00,62.1,57.9,29.49,ESE,104,0.0,2.0,86,0.00,,,0.01,VWS V14.01,2013-05-31 10:08:00,
2013-05-31 05:13:00,62.0,57.8,29.49,South,172,0.0,2.0,86,0.00,,,0.01,VWS V14.01,2013-05-31 10:13:00,
2013-05-31 05:18:00,62.0,57.8,29.49,South,172,0.0,2.0,86,0.00,,,0.01,VWS V14.01,2013-05-31 10:18:00,
2013-05-31 05:23:00,62.0,57.8,29.49,ESE,121,0.0,2.0,86,0.00,,,0.01,VWS V14.01,2013-05-31 10:23:00,
2013-05-31 05:28:00,62.0,57.8,29.49,West,273,0.0,3.0,86,0.00,,,0.01,VWS V14.01,2013-05-31 10:28:00,
2013-05-31 05:33:00,62.0,57.8,29.49,SW,225,0.0,0.0,86,0.00,,,0.01,VWS V14.01,2013-05-31 10:33:00,
2013-05-31 05:38:00,62.1,57.9,29.49,SSE,148,0.0,7.0,86,0.00,,,0.01,VWS V14.01,2013-05-31 10:38:00,
2013-05-31 05:43:00,62.2,58.0,29.49,ESE,119,0.0,7.0,86,0.00,,,0.01,VWS V14.01,2013-05-31 10:43:00,
2013-05-31 05:48:00,62.2,57.6,29.49,NW,305,1.0,7.0,85,0.00,,,0.01,VWS V14.01,2013-05-31 10:48:00,
2013-05-31 05:53:00,62.2,57.6,29.49,ESE,119,2.0,7.0,85,0.00,,,0.01,VWS V14.01,2013-05-31 10:53:00,
2013-05-31 05:59:00,62.2,57.6,29.49,East,101,2.0,7.0,85,0.00,,,0.01,VWS V14.01,2013-05-31 10:59:00,
2013-05-31 06:04:00,62.2,57.6,29.49,SSE,156,1.0,4.0,85,0.00,,,0.01,VWS V14.01,2013-05-31 11:04:00,
2013-05-31 06:09:00,62.2,57.3,29.49,SW,214,0.0,6.0,84,0.00,,,0.01,VWS V14.01,2013-05-31 11:09:00,
2013-05-31 06:14:00,62.2,57.6,29.49,SW,218,0.0,6.0,85,0.00,,,0.01,VWS V14.01,2013-05-31 11:14:00,
2013-05-31 06:19:00,62.2,57.6,29.49,NNW,330,1.0,6.0,85,0.00,,,0.01,VWS V14.01,2013-05-31 11:19:00,
2013-05-31 06:24:00,62.2,57.3,29.49,NE,40,0.0,6.0,84,0.00,,,0.01,VWS V14.01,2013-05-31 11:24:00,
2013-05-31 06:29:00,62.2,57.3,29.49,SE,142,0.0,6.0,84,0.00,,,0.01,VWS V14.01,2013-05-31 11:29:00,
2013-05-31 06:34:00,62.2,57.3,29.49,East,95,3.0,3.0,84,0.00,,,0.01,VWS V14.01,2013-05-31 11:34:00,
2013-05-31 06:39:00,62.3,57.1,29.49,ESE,118,1.0,3.0,83,0.00,,,0.01,VWS V14.01,2013-05-31 11:39:00,
2013-05-31 06:44:00,62.4,57.2,29.49,ESE,112,0.0,3.0,83,0.00,,,0.01,VWS V14.01,2013-05-31 11:44:00,
2013-05-31 06:49:00,62.5,56.9,29.49,South,171,0.0,3.0,82,0.00,,,0.01,VWS V14.01,2013-05-31 11:49:00,
2013-05-31 06:55:00,62.5,56.6,29.49,ESE,120,2.0,6.0,81,0.00,,,0.01,VWS V14.01,2013-05-31 11:55:00,
2013-05-31 07:00:00,62.5,56.6,29.49,ENE,62,1.0,6.0,81,0.00,,,0.01,VWS V14.01,2013-05-31 12:00:00,
2013-05-31 07:05:00,62.5,56.2,29.49,SSE,152,0.0,2.0,80,0.00,,,0.01,VWS V14.01,2013-05-31 12:05:00,
2013-05-31 07:10:00,62.4,56.5,29.49,ESE,106,3.0,3.0,81,0.00,,,0.01,VWS V14.01,2013-05-31 12:10:00,
2013-05-31 07:15:00,62.3,56.1,29.49,South,188,0.0,5.0,80,0.00,,,0.01,VWS V14.01,2013-05-31 12:15:00,
2013-05-31 07:20:00,62.3,56.1,29.49,SE,127,0.0,5.0,80,0.00,,,0.01,VWS V14.01,2013-05-31 12:20:00,
2013-05-31 07:25:00,62.4,56.2,29.49,East,87,0.0,5.0,80,0.00,,,0.01,VWS V14.01,2013-05-31 12:25:00,
2013-05-31 07:30:00,62.7,56.1,29.49,South,185,1.0,5.0,79,0.00,,,0.01,VWS V14.01,2013-05-31 12:30:00,
2013-05-31 07:35:00,62.9,56.3,29.49,SSW,201,2.0,3.0,79,0.00,,,0.01,VWS V14.01,2013-05-31 12:35:00,
2013-05-31 07:40:00,63.0,56.4,29.49,South,182,0.0,7.0,79,0.00,,,0.01,VWS V14.01,2013-05-31 12:40:00,
2013-05-31 07:45:00,63.1,55.8,29.49,East,92,0.0,7.0,77,0.00,,,0.01,VWS V14.01,2013-05-31 12:45:00,
2013-05-31 07:51:00,63.2,56.2,29.49,NW,325,1.0,7.0,78,0.00,,,0.01,VWS V14.01,2013-05-31 12:51:00,
2013-05-31 07:56:00,63.3,56.0,29.49,ENE,65,4.0,7.0,77,0.00,,,0.01,VWS V14.01,2013-05-31 12:56:00,
2013-05-31 08:01:00,63.5,56.5,29.49,NE,56,0.0,7.0,78,0.00,,,0.01,VWS V14.01,2013-05-31 13:01:00,
2013-05-31 08:06:00,63.7,56.4,29.49,NW,313,1.0,2.0,77,0.00,,,0.01,VWS V14.01,2013-05-31 13:06:00,
2013-05-31 08:11:00,63.9,56.6,29.49,NNE,27,0.0,6.0,77,0.00,,,0.01,VWS V14.01,2013-05-31 13:11:00,
2013-05-31 08:16:00,64.0,56.3,29.49,SE,138,1.0,6.0,76,0.00,,,0.01,VWS V14.01,2013-05-31 13:16:00,
2013-05-31 08:21:00,64.1,56.4,29.49,WSW,251,0.0,6.0,76,0.00,,,0.01,VWS V14.01,2013-05-31 13:21:00,
2013-05-31 08:26:00,64.4,56.7,29.50,SSE,166,1.0,6.0,76,0.00,,,0.01,VWS V14.01,2013-05-31 13:26:00,
2013-05-31 08:31:00,64.6,56.1,29.50,WNW,301,2.0,6.0,74,0.00,,,0.01,VWS V14.01,2013-05-31 13:31:00,
2013-05-31 08:36:00,64.8,56.0,29.50,SW,224,2.0,7.0,73,0.00,,,0.01,VWS V14.01,2013-05-31 13:36:00,
2013-05-31 08:41:00,65.1,55.9,29.50,NE,49,0.0,9.0,72,0.00,,,0.01,VWS V14.01,2013-05-31 13:41:00,
2013-05-31 08:47:00,65.4,55.0,29.50,ESE,106,4.0,9.0,69,0.00,,,0.01,VWS V14.01,2013-05-31 13:47:00,
2013-05-31 08:52:00,65.9,55.8,29.49,NW,313,1.0,9.0,70,0.00,,,0.01,VWS V14.01,2013-05-31 13:52:00,
2013-05-31 08:57:00,66.5,55.6,29.50,North,4,3.0,9.0,68,0.00,,,0.01,VWS V14.01,2013-05-31 13:57:00,
2013-05-31 09:02:00,67.0,56.1,29.50,NNW,336,0.0,11.0,68,0.00,,,0.01,VWS V14.01,2013-05-31 14:02:00,
2013-05-31 09:07:00,67.5,56.2,29.50,West,280,4.0,6.0,67,0.00,,,0.01,VWS V14.01,2013-05-31 14:07:00,
2013-05-31 09:12:00,67.8,56.5,29.50,ENE,74,0.0,9.0,67,0.00,,,0.01,VWS V14.01,2013-05-31 14:12:00,
2013-05-31 09:17:00,67.9,55.3,29.50,ESE,113,3.0,9.0,64,0.00,,,0.01,VWS V14.01,2013-05-31 14:17:00,
2013-05-31 09:22:00,68.0,55.8,29.50,NW,310,0.0,9.0,65,0.00,,,0.01,VWS V14.01,2013-05-31 14:22:00,
2013-05-31 09:27:00,68.2,55.6,29.50,East,82,2.0,9.0,64,0.00,,,0.01,VWS V14.01,2013-05-31 14:27:00,
2013-05-31 09:32:00,68.2,55.6,29.49,ENE,67,1.0,9.0,64,0.00,,,0.01,VWS V14.01,2013-05-31 14:32:00,
2013-05-31 09:37:00,68.4,56.2,29.49,ESE,107,4.0,5.0,65,0.00,,,0.01,VWS V14.01,2013-05-31 14:37:00,
2013-05-31 09:42:00,68.5,55.4,29.50,South,189,0.0,6.0,63,0.00,,,0.01,VWS V14.01,2013-05-31 14:42:00,
2013-05-31 09:48:00,69.0,55.9,29.50,ESE,104,1.0,6.0,63,0.00,,,0.01,VWS V14.01,2013-05-31 14:48:00,
2013-05-31 09:53:00,69.1,55.5,29.50,South,185,3.0,6.0,62,0.00,,,0.01,VWS V14.01,2013-05-31 14:53:00,
2013-05-31 09:58:00,69.2,55.2,29.50,ESE,102,0.0,7.0,61,0.00,,,0.01,VWS V14.01,2013-05-31 14:58:00,
2013-05-31 10:03:00,69.3,54.8,29.50,East,93,5.0,5.0,60,0.00,,,0.01,VWS V14.01,2013-05-31 15:03:00,
2013-05-31 10:08:00,69.4,55.8,29.50,ESE,123,0.0,7.0,62,0.00,,,0.01,VWS V14.01,2013-05-31 15:08:00,
2013-05-31 10:13:00,69.9,55.8,29.49,South,183,1.0,9.0,61,0.00,,,0.01,VWS V14.01,2013-05-31 15:13:00,
2013-05-31 10:18:00,70.4,56.3,29.49,ENE,77,5.0,9.0,61,0.00,,,0.01,VWS V14.01,2013-05-31 15:18:00,
2013-05-31 10:23:00,70.6,56.1,29.49,ESE,110,1.0,9.0,60,0.00,,,0.01,VWS V14.01,2013-05-31 15:23:00,
2013-05-31 10:28:00,70.8,56.2,29.49,WNW,303,5.0,9.0,60,0.00,,,0.01,VWS V14.01,2013-05-31 15:28:00,
2013-05-31 10:33:00,70.9,57.2,29.49,WNW,283,1.0,4.0,62,0.00,,,0.01,VWS V14.01,2013-05-31 15:33:00,
2013-05-31 10:39:00,71.5,58.3,29.49,ESE,122,3.0,7.0,63,0.00,,,0.01,VWS V14.01,2013-05-31 15:39:00,
2013-05-31 10:44:00,71.6,56.1,29.49,SSE,152,3.0,7.0,58,0.00,,,0.01,VWS V14.01,2013-05-31 15:44:00,
2013-05-31 10:49:00,71.1,56.1,29.49,NW,326,1.0,8.0,59,0.00,,,0.01,VWS V14.01,2013-05-31 15:49:00,
2013-05-31 10:54:00,71.1,56.5,29.49,ENE,67,3.0,8.0,60,0.00,,,0.01,VWS V14.01,2013-05-31 15:54:00,
2013-05-31 10:59:00,71.4,57.3,29.49,ENE,67,1.0,8.0,61,0.00,,,0.01,VWS V14.01,2013-05-31 15:59:00,
2013-05-31 11:04:00,71.5,56.4,29.49,SSE,148,1.0,3.0,59,0.00,,,0.01,VWS V14.01,2013-05-31 16:04:00,
2013-05-31 11:09:00,71.7,56.6,29.49,ESE,104,1.0,5.0,59,0.00,,,0.01,VWS V14.01,2013-05-31 16:09:00,
2013-05-31 11:14:00,71.9,56.3,29.49,ESE,113,0.0,10.0,58,0.00,,,0.01,VWS V14.01,2013-05-31 16:14:00,
2013-05-31 11:19:00,72.6,56.5,29.50,SW,227,2.0,10.0,57,0.00,,,0.01,VWS V14.01,2013-05-31 16:19:00,
2013-05-31 11:24:00,72.7,57.1,29.49,SE,139,3.0,10.0,58,0.00,,,0.01,VWS V14.01,2013-05-31 16:24:00,
2013-05-31 11:29:00,72.7,57.1,29.50,NE,36,2.0,10.0,58,0.00,,,0.01,VWS V14.01,2013-05-31 16:29:00,
2013-05-31 11:35:00,72.4,56.8,29.49,East,91,7.0,8.0,58,0.00,,,0.01,VWS V14.01,2013-05-31 16:35:00,
2013-05-31 11:40:00,72.4,56.8,29.50,SW,214,5.0,11.0,58,0.00,,,0.01,VWS V14.01,2013-05-31 16:40:00,
2013-05-31 11:45:00,73.0,56.4,29.50,East,90,2.0,11.0,56,0.00,,,0.01,VWS V14.01,2013-05-31 16:45:00,
2013-05-31 11:50:00,73.5,56.9,29.50,SSW,201,2.0,13.0,56,0.00,,,0.01,VWS V14.01,2013-05-31 16:50:00,
2013-05-31 11:55:00,73.8,56.6,29.50,NE,34,1.0,13.0,55,0.00,,,0.01,VWS V14.01,2013-05-31 16:55:00,
2013-05-31 12:00:00,74.0,56.8,29.50,ESE,104,3.0,13.0,55,0.00,,,0.01,VWS V14.01,2013-05-31 17:00:00,
2013-05-31 12:05:00,73.9,56.2,29.50,SE,136,4.0,15.0,54,0.00,,,0.01,VWS V14.01,2013-05-31 17:05:00,
2013-05-31 12:10:00,73.9,56.7,29.50,ENE,61,3.0,15.0,55,0.00,,,0.01,VWS V14.01,2013-05-31 17:10:00,
2013-05-31 12:15:00,74.0,56.8,29.50,South,186,2.0,15.0,55,0.00,,,0.01,VWS V14.01,2013-05-31 17:15:00,
2013-05-31 12:20:00,74.4,56.7,29.50,ENE,62,2.0,15.0,54,0.00,,,0.01,VWS V14.01,2013-05-31 17:20:00,
2013-05-31 12:25:00,74.4,56.7,29.50,SSW,193,2.0,15.0,54,0.00,,,0.01,VWS V14.01,2013-05-31 17:25:00,
2013-05-31 12:31:00,74.6,57.4,29.50,WNW,302,2.0,15.0,55,0.00,,,0.01,VWS V14.01,2013-05-31 17:31:00,
2013-05-31 12:36:00,74.7,57.5,29.50,ESE,118,7.0,7.0,55,0.00,,,0.01,VWS V14.01,2013-05-31 17:36:00,
2013-05-31 12:41:00,74.7,56.5,29.50,South,174,6.0,7.0,53,0.00,,,0.01,VWS V14.01,2013-05-31 17:41:00,
2013-05-31 12:46:00,74.9,56.1,29.50,ENE,74,2.0,7.0,52,0.00,,,0.01,VWS V14.01,2013-05-31 17:46:00,
2013-05-31 12:51:00,75.6,57.3,29.50,SE,139,2.0,7.0,53,0.00,,,0.01,VWS V14.01,2013-05-31 17:51:00,
2013-05-31 12:56:00,76.1,56.7,29.50,NW,305,1.0,7.0,51,0.00,,,0.01,VWS V14.01,2013-05-31 17:56:00,
2013-05-31 13:01:00,75.9,56.0,29.50,NW,319,2.0,9.0,50,0.00,,,0.01,VWS V14.01,2013-05-31 18:01:00,
2013-05-31 13:06:00,75.4,56.6,29.50,NW,320,3.0,12.0,52,0.00,,,0.01,VWS V14.01,2013-05-31 18:06:00,
2013-05-31 13:11:00,75.4,57.1,29.49,South,179,2.0,12.0,53,0.00,,,0.01,VWS V14.01,2013-05-31 18:11:00,
2013-05-31 13:17:00,75.5,57.2,29.49,SSE,152,0.0,12.0,53,0.00,,,0.01,VWS V14.01,2013-05-31 18:17:00,
2013-05-31 13:22:00,75.8,58.5,29.49,West,276,2.0,12.0,55,0.00,,,0.01,VWS V14.01,2013-05-31 18:22:00,
2013-05-31 13:27:00,75.9,58.6,29.49,SW,228,4.0,12.0,55,0.00,,,0.01,VWS V14.01,2013-05-31 18:27:00,
2013-05-31 13:32:00,76.2,58.4,29.49,West,268,2.0,12.0,54,0.00,,,0.01,VWS V14.01,2013-05-31 18:32:00,
2013-05-31 13:37:00,76.0,58.2,29.48,East,87,3.0,10.0,54,0.00,,,0.01,VWS V14.01,2013-05-31 18:37:00,
2013-05-31 13:42:00,75.4,57.6,29.49,WNW,286,0.0,10.0,54,0.00,,,0.01,VWS V14.01,2013-05-31 18:42:00,
2013-05-31 13:47:00,75.1,57.8,29.48,WSW,238,1.0,10.0,55,0.00,,,0.01,VWS V14.01,2013-05-31 18:47:00,
2013-05-31 13:52:00,74.8,58.1,29.48,South,189,1.0,14.0,56,0.00,,,0.01,VWS V14.01,2013-05-31 18:52:00,
2013-05-31 13:57:00,74.4,57.7,29.48,West,268,3.0,14.0,56,0.00,,,0.01,VWS V14.01,2013-05-31 18:57:00,
2013-05-31 14:02:00,74.1,57.9,29.48,SSW,213,1.0,14.0,57,0.00,,,0.01,VWS V14.01,2013-05-31 19:02:00,
2013-05-31 14:07:00,74.6,58.4,29.48,South,176,2.0,10.0,57,0.00,,,0.01,VWS V14.01,2013-05-31 19:07:00,
2013-05-31 14:13:00,75.0,58.3,29.48,West,272,4.0,11.0,56,0.00,,,0.01,VWS V14.01,2013-05-31 19:13:00,
2013-05-31 14:18:00,74.6,58.4,29.47,ENE,72,2.0,11.0,57,0.00,,,0.01,VWS V14.01,2013-05-31 19:18:00,
2013-05-31 14:23:00,74.4,57.7,29.47,ESE,110,2.0,11.0,56,0.00,,,0.01,VWS V14.01,2013-05-31 19:23:00,
2013-05-31 14:28:00,74.8,58.1,29.48,East,82,3.0,11.0,56,0.00,,,0.01,VWS V14.01,2013-05-31 19:28:00,
2013-05-31 14:33:00,75.0,57.2,29.48,ESE,102,1.0,6.0,54,0.00,,,0.01,VWS V14.01,2013-05-31 19:33:00,
2013-05-31 14:38:00,75.7,56.3,29.47,SE,133,3.0,12.0,51,0.00,,,0.01,VWS V14.01,2013-05-31 19:38:00,
2013-05-31 14:43:00,76.7,52.5,29.48,SE,135,4.0,13.0,43,0.00,,,0.01,VWS V14.01,2013-05-31 19:43:00,
2013-05-31 14:48:00,77.5,52.6,29.47,West,278,6.0,15.0,42,0.00,,,0.01,VWS V14.01,2013-05-31 19:48:00,
2013-05-31 14:53:00,78.0,53.7,29.47,SSE,162,3.0,15.0,43,0.00,,,0.01,VWS V14.01,2013-05-31 19:53:00,
2013-05-31 14:59:00,78.3,54.0,29.47,West,261,3.0,15.0,43,0.00,,,0.01,VWS V14.01,2013-05-31 19:59:00,
2013-05-31 15:04:00,78.0,54.3,29.47,NNE,31,0.0,11.0,44,0.00,,,0.01,VWS V14.01,2013-05-31 20:04:00,
2013-05-31 15:09:00,78.1,55.0,29.47,North,354,1.0,12.0,45,0.00,,,0.01,VWS V14.01,2013-05-31 20:09:00,
2013-05-31 15:14:00,77.9,55.5,29.47,SE,144,1.0,12.0,46,0.00,,,0.01,VWS V14.01,2013-05-31 20:14:00,
2013-05-31 15:19:00,77.9,55.5,29.47,NW,312,2.0,12.0,46,0.00,,,0.01,VWS V14.01,2013-05-31 20:19:00,
2013-05-31 15:24:00,77.2,54.2,29.47,SSW,201,2.0,12.0,45,0.00,,,0.01,VWS V14.01,2013-05-31 20:24:00,
2013-05-31 15:29:00,76.7,56.1,29.47,SE,142,1.0,12.0,49,0.00,,,0.01,VWS V14.01,2013-05-31 20:29:00,
2013-05-31 15:34:00,76.9,55.7,29.48,SW,218,1.0,12.0,48,0.00,,,0.01,VWS V14.01,2013-05-31 20:34:00,
2013-05-31 15:39:00,77.3,54.9,29.48,NE,35,0.0,13.0,46,0.00,,,0.01,VWS V14.01,2013-05-31 20:39:00,
2013-05-31 15:44:00,77.4,55.0,29.48,WNW,292,4.0,13.0,46,0.00,,,0.01,VWS V14.01,2013-05-31 20:44:00,
2013-05-31 15:50:00,77.5,53.9,29.48,ESE,112,2.0,16.0,44,0.00,,,0.01,VWS V14.01,2013-05-31 20:50:00,
2013-05-31 15:55:00,77.5,54.5,29.48,West,276,7.0,16.0,45,0.00,,,0.01,VWS V14.01,2013-05-31 20:55:00,
2013-05-31 16:00:00,77.0,55.2,29.48,West,277,5.0,16.0,47,0.00,,,0.01,VWS V14.01,2013-05-31 21:00:00,
2013-05-31 16:05:00,76.8,55.7,29.48,SSE,164,1.0,6.0,48,0.00,,,0.01,VWS V14.01,2013-05-31 21:05:00,
2013-05-31 16:10:00,77.2,54.8,29.48,ESE,104,2.0,10.0,46,0.00,,,0.01,VWS V14.01,2013-05-31 21:10:00,
2013-05-31 16:15:00,76.9,54.0,29.48,SSE,158,7.0,10.0,45,0.00,,,0.01,VWS V14.01,2013-05-31 21:15:00,
2013-05-31 16:20:00,76.7,54.4,29.48,WSW,241,1.0,13.0,46,0.00,,,0.01,VWS V14.01,2013-05-31 21:20:00,
2013-05-31 16:25:00,76.5,53.6,29.48,NW,318,2.0,13.0,45,0.00,,,0.01,VWS V14.01,2013-05-31 21:25:00,
2013-05-31 16:30:00,75.9,53.7,29.48,North,4,3.0,13.0,46,0.00,,,0.01,VWS V14.01,2013-05-31 21:30:00,
2013-05-31 16:35:00,75.9,53.1,29.48,NNW,330,1.0,11.0,45,0.00,,,0.01,VWS V14.01,2013-05-31 21:35:00,
2013-05-31 16:40:00,75.7,54.6,29.48,SE,132,1.0,11.0,48,0.00,,,0.01,VWS V14.01,2013-05-31 21:40:00,
2013-05-31 16:45:00,75.2,53.0,29.48,WSW,250,8.0,11.0,46,0.00,,,0.01,VWS V14.01,2013-05-31 21:45:00,
2013-05-31 16:50:00,75.0,52.8,29.48,WNW,295,5.0,15.0,46,0.00,,,0.01,VWS V14.01,2013-05-31 21:50:00,
2013-05-31 16:56:00,74.6,53.1,29.48,North,9,1.0,15.0,47,0.00,,,0.01,VWS V14.01,2013-05-31 21:56:00,
2013-05-31 17:01:00,74.2,52.1,29.48,SE,129,2.0,15.0,46,0.00,,,0.01,VWS V14.01,2013-05-31 22:01:00,
2013-05-31 17:06:00,74.0,51.9,29.48,SE,139,1.0,8.0,46,0.00,,,0.01,VWS V14.01,2013-05-31 22:06:00,
2013-05-31 17:11:00,73.8,52.3,29.48,WSW,246,9.0,16.0,47,0.00,,,0.01,VWS V14.01,2013-05-31 22:11:00,
2013-05-31 17:16:00,73.7,51.7,29.48,SW,235,1.0,16.0,46,0.00,,,0.01,VWS V14.01,2013-05-31 22:16:00,
2013-05-31 17:21:00,73.7,52.2,29.48,South,180,2.0,16.0,47,0.00,,,0.01,VWS V14.01,2013-05-31 22:21:00,
2013-05-31 17:26:00,73.6,52.7,29.48,SSW,211,0.0,16.0,48,0.00,,,0.01,VWS V14.01,2013-05-31 22:26:00,
2013-05-31 17:31:00,73.6,52.2,29.48,SW,235,2.0,16.0,47,0.00,,,0.01,VWS V14.01,2013-05-31 22:31:00,
2013-05-31 17:36:00,73.6,52.2,29.48,SW,231,8.0,8.0,47,0.00,,,0.01,VWS V14.01,2013-05-31 22:36:00,
2013-05-31 17:41:00,73.6,52.2,29.48,SSE,157,4.0,9.0,47,0.00,,,0.01,VWS V14.01,2013-05-31 22:41:00,
2013-05-31 17:46:00,73.5,52.6,29.47,WNW,299,1.0,12.0,48,0.00,,,0.01,VWS V14.01,2013-05-31 22:46:00,
2013-05-31 17:51:00,73.3,52.5,29.47,WNW,288,3.0,12.0,48,0.00,,,0.01,VWS V14.01,2013-05-31 22:51:00,
2013-05-31 17:57:00,73.1,52.3,29.47,SSW,204,0.0,12.0,48,0.00,,,0.01,VWS V14.01,2013-05-31 22:57:00,
2013-05-31 18:02:00,73.0,52.7,29.47,WNW,295,4.0,12.0,49,0.00,,,0.01,VWS V14.01,2013-05-31 23:02:00,
2013-05-31 18:07:00,72.8,52.5,29.47,ENE,74,1.0,8.0,49,0.00,,,0.01,VWS V14.01,2013-05-31 23:07:00,
2013-05-31 18:12:00,72.6,52.4,29.48,SE,129,2.0,8.0,49,0.00,,,0.01,VWS V14.01,2013-05-31 23:12:00,
2013-05-31 18:17:00,72.5,52.8,29.48,West,280,1.0,8.0,50,0.00,,,0.01,VWS V14.01,2013-05-31 23:17:00,
2013-05-31 18:22:00,72.6,52.9,29.48,WSW,237,11.0,11.0,50,0.00,,,0.01,VWS V14.01,2013-05-31 23:22:00,
2013-05-31 18:27:00,73.0,53.3,29.48,SW,220,1.0,11.0,50,0.00,,,0.01,VWS V14.01,2013-05-31 23:27:00,
2013-05-31 18:32:00,73.3,53.6,29.48,WNW,288,3.0,12.0,50,0.00,,,0.01,VWS V14.01,2013-05-31 23:32:00,
2013-05-31 18:37:00,73.3,53.6,29.48,WSW,239,0.0,11.0,50,0.00,,,0.01,VWS V14.01,2013-05-31 23:37:00,
2013-05-31 18:42:00,73.1,53.4,29.48,North,359,0.0,11.0,50,0.00,,,0.01,VWS V14.01,2013-05-31 23:42:00,
2013-05-31 18:47:00,72.9,53.7,29.48,NE,34,2.0,12.0,51,0.00,,,0.01,VWS V14.01,2013-05-31 23:47:00,
2013-05-31 18:52:00,72.1,54.0,29.49,North,359,0.0,12.0,53,0.00,,,0.01,VWS V14.01,2013-05-31 23:52:00,
2013-05-31 18:57:00,71.3,53.8,29.49,SSW,202,0.0,12.0,54,0.00,,,0.01,VWS V14.01,2013-05-31 23:57:00,
2013-05-31 19:02:00,70.9,54.0,29.49,SE,135,0.0,12.0,55,0.00,,,0.01,VWS V14.01,2013-06-01 00:02:00,
2013-05-31 19:08:00,70.7,54.7,29.49,SW,214,0.0,1.0,57,0.00,,,0.01,VWS V14.01,2013-06-01 00:08:00,
2013-05-31 19:13:00,70.5,54.5,29.49,SW,235,0.0,1.0,57,0.00,,,0.01,VWS V14.01,2013-06-01 00:13:00,
2013-05-31 19:18:00,70.5,54.1,29.49,WSW,248,0.0,2.0,56,0.00,,,0.01,VWS V14.01,2013-06-01 00:18:00,
2013-05-31 19:23:00,70.5,53.6,29.49,WSW,253,0.0,4.0,55,0.00,,,0.01,VWS V14.01,2013-06-01 00:23:00,
2013-05-31 19:28:00,70.5,54.1,29.50,WSW,239,0.0,4.0,56,0.00,,,0.01,VWS V14.01,2013-06-01 00:28:00,
2013-05-31 19:33:00,70.5,54.1,29.50,WSW,249,0.0,4.0,56,0.00,,,0.01,VWS V14.01,2013-06-01 00:33:00,
2013-05-31 19:38:00,70.5,54.1,29.50,WSW,249,0.0,0.0,56,0.00,,,0.01,VWS V14.01,2013-06-01 00:38:00,
2013-05-31 19:43:00,70.4,54.0,29.50,West,264,0.0,1.0,56,0.00,,,0.01,VWS V14.01,2013-06-01 00:43:00,
2013-05-31 19:48:00,70.3,54.8,29.50,WSW,239,0.0,2.0,58,0.00,,,0.01,VWS V14.01,2013-06-01 00:48:00,
2013-05-31 19:53:00,70.1,55.1,29.50,WSW,239,0.0,2.0,59,0.00,,,0.01,VWS V14.01,2013-06-01 00:53:00,
2013-05-31 19:58:00,70.0,54.6,29.50,WSW,239,0.0,2.0,58,0.00,,,0.01,VWS V14.01,2013-06-01 00:58:00,
2013-05-31 20:03:00,69.8,54.8,29.50,WSW,246,0.0,0.0,59,0.00,,,0.01,VWS V14.01,2013-06-01 01:03:00,
2013-05-31 20:09:00,69.6,55.6,29.50,WSW,247,0.0,2.0,61,0.00,,,0.01,VWS V14.01,2013-06-01 01:09:00,
2013-05-31 20:14:00,69.4,54.5,29.50,WSW,247,0.0,2.0,59,0.00,,,0.01,VWS V14.01,2013-06-01 01:14:00,
2013-05-31 20:19:00,69.1,54.2,29.51,WSW,247,0.0,2.0,59,0.00,,,0.01,VWS V14.01,2013-06-01 01:19:00,
2013-05-31 20:24:00,68.9,54.9,29.50,SW,220,0.0,2.0,61,0.00,,,0.01,VWS V14.01,2013-06-01 01:24:00,
2013-05-31 20:29:00,68.7,54.3,29.50,SW,220,0.0,2.0,60,0.00,,,0.01,VWS V14.01,2013-06-01 01:29:00,
2013-05-31 20:34:00,68.6,54.6,29.50,SW,220,0.0,2.0,61,0.00,,,0.01,VWS V14.01,2013-06-01 01:34:00,
2013-05-31 20:39:00,68.2,54.7,29.50,SE,129,0.0,1.0,62,0.00,,,0.01,VWS V14.01,2013-06-01 01:39:00,
2013-05-31 20:44:00,67.9,54.4,29.50,WSW,250,0.0,2.0,62,0.00,,,0.01,VWS V14.01,2013-06-01 01:44:00,
2013-05-31 20:50:00,67.7,54.7,29.50,WSW,250,0.0,2.0,63,0.00,,,0.01,VWS V14.01,2013-06-01 01:50:00,
2013-05-31 20:55:00,67.4,54.4,29.50,WSW,254,0.0,2.0,63,0.00,,,0.01,VWS V14.01,2013-06-01 01:55:00,
2013-05-31 21:00:00,67.1,53.7,29.50,WSW,258,0.0,2.0,62,0.00,,,0.01,VWS V14.01,2013-06-01 02:00:00,
2013-05-31 21:05:00,67.0,53.1,29.50,WNW,294,0.0,1.0,61,0.00,,,0.01,VWS V14.01,2013-06-01 02:05:00,
2013-05-31 21:10:00,67.0,53.1,29.50,West,274,0.0,2.0,61,0.00,,,0.01,VWS V14.01,2013-06-01 02:10:00,
2013-05-31 21:15:00,67.0,53.1,29.50,West,267,0.0,2.0,61,0.00,,,0.01,VWS V14.01,2013-06-01 02:15:00,
2013-05-31 21:20:00,66.9,53.9,29.49,WNW,285,0.0,4.0,63,0.00,,,0.01,VWS V14.01,2013-06-01 02:20:00,
2013-05-31 21:25:00,66.8,52.9,29.49,WNW,285,0.0,4.0,61,0.00,,,0.01,VWS V14.01,2013-06-01 02:25:00,
2013-05-31 21:30:00,66.7,52.8,29.50,West,278,0.0,4.0,61,0.00,,,0.01,VWS V14.01,2013-06-01 02:30:00,
2013-05-31 21:35:00,66.5,53.1,29.49,West,278,0.0,0.0,62,0.00,,,0.01,VWS V14.01,2013-06-01 02:35:00,
2013-05-31 21:40:00,66.4,53.0,29.49,West,278,0.0,0.0,62,0.00,,,0.01,VWS V14.01,2013-06-01 02:40:00,
2013-05-31 21:46:00,66.2,52.8,29.49,West,278,0.0,0.0,62,0.00,,,0.01,VWS V14.01,2013-06-01 02:46:00,
2013-05-31 21:51:00,66.1,53.2,29.49,West,278,0.0,0.0,63,0.00,,,0.01,VWS V14.01,2013-06-01 02:51:00,
2013-05-31 21:56:00,65.9,53.4,29.49,West,278,0.0,0.0,64,0.00,,,0.01,VWS V14.01,2013-06-01 02:56:00,
2013-05-31 22:01:00,65.8,53.3,29.48,West,278,0.0,0.0,64,0.00,,,0.01,VWS V14.01,2013-06-01 03:01:00,
2013-05-31 22:06:00,65.6,53.1,29.48,West,278,0.0,0.0,64,0.00,,,0.01,VWS V14.01,2013-06-01 03:06:00,
2013-05-31 22:11:00,65.4,52.9,29.48,West,278,0.0,0.0,64,0.00,,,0.01,VWS V14.01,2013-06-01 03:11:00,
2013-05-31 22:16:00,65.2,52.7,29.49,West,278,0.0,0.0,64,0.00,,,0.01,VWS V14.01,2013-06-01 03:16:00,
2013-05-31 22:21:00,65.0,54.2,29.50,West,278,0.0,0.0,68,0.00,,,0.01,VWS V14.01,2013-06-01 03:21:00,
2013-05-31 22:26:00,64.8,54.4,29.51,West,278,0.0,0.0,69,0.00,,,0.01,VWS V14.01,2013-06-01 03:26:00,
2013-05-31 22:31:00,64.6,55.0,29.51,West,278,0.0,0.0,71,0.00,,,0.01,VWS V14.01,2013-06-01 03:31:00,
2013-05-31 22:37:00,64.4,54.4,29.51,West,278,0.0,0.0,70,0.00,,,0.01,VWS V14.01,2013-06-01 03:37:00,
2013-05-31 22:42:00,64.2,55.0,29.51,West,278,0.0,0.0,72,0.00,,,0.01,VWS V14.01,2013-06-01 03:42:00,
2013-05-31 22:47:00,63.9,54.7,29.51,West,278,0.0,0.0,72,0.00,,,0.01,VWS V14.01,2013-06-01 03:47:00,
2013-05-31 22:52:00,63.8,54.6,29.51,West,278,0.0,0.0,72,0.00,,,0.01,VWS V14.01,2013-06-01 03:52:00,
2013-05-31 22:57:00,63.6,54.8,29.51,West,278,0.0,0.0,73,0.00,,,0.01,VWS V14.01,2013-06-01 03:57:00,
2013-05-31 23:01:00,63.5,54.7,29.51,West,278,0.0,0.0,73,0.00,,,0.01,VWS V14.01,2013-06-01 04:01:00,
2013-05-31 23:02:00,63.4,55.0,29.51,West,278,0.0,0.0,74,0.00,,,0.01,VWS V14.01,2013-06-01 04:02:00,
2013-05-31 23:07:00,63.3,54.9,29.51,West,278,0.0,0.0,74,0.00,,,0.01,VWS V14.01,2013-06-01 04:07:00,
2013-05-31 23:12:00,63.2,55.2,29.51,West,278,0.0,0.0,75,0.00,,,0.01,VWS V14.01,2013-06-01 04:12:00,
2013-05-31 23:17:00,63.0,55.0,29.51,West,278,0.0,0.0,75,0.00,,,0.01,VWS V14.01,2013-06-01 04:17:00,
2013-05-31 23:23:00,62.8,54.8,29.51,West,278,0.0,0.0,75,0.00,,,0.01,VWS V14.01,2013-06-01 04:23:00,
2013-05-31 23:28:00,62.6,54.6,29.52,West,278,0.0,0.0,75,0.00,,,0.01,VWS V14.01,2013-06-01 04:28:00,
2013-05-31 23:33:00,62.5,54.5,29.52,West,278,0.0,0.0,75,0.00,,,0.01,VWS V14.01,2013-06-01 04:33:00,
2013-05-31 23:38:00,62.3,55.0,29.52,West,278,0.0,0.0,77,0.00,,,0.01,VWS V14.01,2013-06-01 04:38:00,
2013-05-31 23:43:00,62.1,54.8,29.52,West,278,0.0,0.0,77,0.00,,,0.01,VWS V14.01,2013-06-01 04:43:00,
2013-05-31 23:48:00,61.9,55.3,29.51,West,278,0.0,0.0,79,0.00,,,0.01,VWS V14.01,2013-06-01 04:48:00,
2013-05-31 23:53:00,61.7,54.8,29.52,West,278,0.0,0.0,78,0.00,,,0.01,VWS V14.01,2013-06-01 04:53:00,
2013-05-31 23:58:00,61.5,54.6,29.51,SE,141,0.0,0.0,78,0.00,,,0.01,VWS V14.01,2013-06-01 04:58:00,